Time;durP1;ratioP1;P1;durP2;ratioP2;P2;SDS_P1;SDS_P2;PMS_P1;PMS_P2;Temp;Humidity;BMP_temperature;BMP_pressure;BME280_temperature;BME280_humidity;BME280_pressure;Samples;Min_cycle;Max_cycle;Signal;HPM_P1;HPM_P2
2022/07/05 00:01:55;;;;;;;;;5.25;5.00;;;;;22.90;62.33;99402.16;5074606;27;45407;-78
2022/07/05 00:04:20;;;;;;;;;6.00;6.00;;;;;22.93;65.74;99409.97;5074585;27;45336;-78
2022/07/05 00:09:30;;;;;;;;;5.20;5.20;;;;;22.95;65.67;99418.75;5077999;28;45328;-78
2022/07/05 00:11:55;;;;;;;;;6.25;6.25;;;;;22.96;65.40;99413.22;5077922;27;45410;-78
2022/07/05 00:14:21;;;;;;;;;8.00;6.50;;;;;23.00;63.78;99416.50;5076316;28;45409;-78
2022/07/05 00:16:46;;;;;;;;;5.00;5.00;;;;;23.02;63.59;99413.69;5077971;27;45226;-78
2022/07/05 00:19:12;;;;;;;;;4.50;4.50;;;;;23.05;61.95;99416.09;5077599;27;45324;-78
2022/07/05 00:21:37;;;;;;;;;6.00;5.00;;;;;23.02;60.69;99413.69;5076476;28;45415;-78
2022/07/05 00:24:02;;;;;;;;;4.00;4.00;;;;;23.00;60.85;99421.88;5077749;27;45391;-78
2022/07/05 00:26:28;;;;;;;;;3.75;3.75;;;;;22.96;60.37;99415.91;5077806;27;45443;-78
2022/07/05 00:28:54;;;;;;;;;6.75;4.75;;;;;22.96;60.64;99423.13;5076090;28;46904;-78
2022/07/05 00:31:19;;;;;;;;;3.00;3.00;;;;;22.93;60.36;99429.63;5076090;28;45515;-78
2022/07/05 00:33:44;;;;;;;;;4.50;4.00;;;;;22.88;60.30;99421.09;5077601;27;45452;-78
2022/07/05 00:36:10;;;;;;;;;4.25;4.25;;;;;22.86;60.09;99423.06;5077582;27;45594;-78
2022/07/05 00:38:35;;;;;;;;;4.00;4.00;;;;;22.80;60.30;99420.91;5077299;27;46617;-78
2022/07/05 00:41:00;;;;;;;;;5.25;4.00;;;;;22.75;59.97;99422.25;5077450;27;45518;-78
2022/07/05 00:43:26;;;;;;;;;3.75;3.50;;;;;22.69;60.52;99422.78;5075710;28;45417;-78
2022/07/05 00:45:51;;;;;;;;;3.50;3.00;;;;;22.61;60.27;99424.28;5077506;27;45479;-78
2022/07/05 00:48:17;;;;;;;;;2.75;2.75;;;;;22.56;60.58;99415.75;5077103;27;46611;-78
2022/07/05 00:50:42;;;;;;;;;4.25;3.75;;;;;22.51;60.21;99425.19;5077207;27;45364;-78
2022/07/05 00:53:08;;;;;;;;;4.00;4.00;;;;;22.43;60.92;99430.38;5077088;27;45408;-78
2022/07/05 00:55:34;;;;;;;;;4.75;4.75;;;;;22.34;61.02;99423.06;5077016;27;45274;-78
2022/07/05 00:58:00;;;;;;;;;6.00;4.50;;;;;22.22;60.87;99428.50;5076558;27;45341;-77
2022/07/05 01:00:25;;;;;;;;;4.25;4.25;;;;;22.10;61.62;99429.50;5076967;28;45444;-77
2022/07/05 01:02:51;;;;;;;;;5.00;5.00;;;;;21.99;62.37;99426.81;5076850;27;45419;-78
2022/07/05 01:05:17;;;;;;;;;5.50;5.00;;;;;21.88;62.25;99419.66;5092947;27;45482;-78
2022/07/05 01:07:43;;;;;;;;;4.20;3.60;;;;;21.85;62.43;99419.88;5076854;28;45509;-78
2022/07/05 01:10:09;;;;;;;;;6.50;6.00;;;;;21.81;62.49;99423.78;5075950;28;45423;-78
2022/07/05 01:12:37;;;;;;;;;9.25;6.00;;;;;21.77;62.93;99419.69;5076512;28;45392;-78
2022/07/05 01:15:03;;;;;;;;;5.00;5.00;;;;;21.75;62.37;99429.69;5077051;28;45659;-77
2022/07/05 01:17:29;;;;;;;;;4.25;4.25;;;;;21.73;62.43;99431.63;5073643;28;48113;-77
2022/07/05 01:19:54;;;;;;;;;5.00;5.00;;;;;21.71;62.91;99427.34;5077250;28;45395;-78
2022/07/05 01:22:23;;;;;;;;;4.50;4.50;;;;;21.70;62.87;99437.25;5076709;28;45220;-77
2022/07/05 01:24:50;;;;;;;;;6.00;5.75;;;;;21.69;63.24;99416.75;5076558;27;45480;-77
2022/07/05 01:27:17;;;;;;;;;5.00;5.00;;;;;21.68;63.76;99419.56;5075996;27;46441;-77
2022/07/05 01:29:43;;;;;;;;;6.00;6.00;;;;;21.69;63.88;99429.31;5092467;27;45419;-78
2022/07/05 01:32:08;;;;;;;;;6.25;5.00;;;;;21.69;64.14;99434.69;5076544;27;45416;-77
2022/07/05 01:34:40;;;;;;;;;7.00;6.00;;;;;21.66;62.95;99432.25;5076368;27;45380;-77
2022/07/05 01:37:06;;;;;;;;;3.80;3.80;;;;;21.64;63.81;99431.50;5076399;27;45509;-77
2022/07/05 01:39:32;;;;;;;;;6.00;5.50;;;;;21.64;64.17;99428.81;5075324;28;45464;-77
2022/07/05 01:41:57;;;;;;;;;4.75;4.25;;;;;21.64;63.74;99432.34;5076363;28;45471;-77
2022/07/05 01:44:22;;;;;;;;;4.00;4.00;;;;;21.62;63.95;99434.31;5076426;27;45521;-78
2022/07/05 01:46:54;;;;;;;;;4.00;4.00;;;;;21.61;64.21;99438.00;5075025;28;46885;-77
2022/07/05 01:49:23;;;;;;;;;7.60;6.00;;;;;21.63;64.21;99435.16;5075030;28;45391;-78
2022/07/05 01:51:55;;;;;;;;;5.50;5.00;;;;;21.67;64.21;99432.13;5063438;28;45324;-77
2022/07/05 01:54:20;;;;;;;;;4.50;4.50;;;;;21.72;64.06;99432.59;5076287;27;45476;-78
2022/07/05 01:56:46;;;;;;;;;6.00;6.00;;;;;21.76;63.96;99433.22;5076350;27;46405;-77
2022/07/05 01:59:11;;;;;;;;;6.00;5.50;;;;;21.79;63.27;99438.31;5075984;28;45444;-78
2022/07/05 02:01:39;;;;;;;;;5.25;5.25;;;;;21.82;62.86;99440.75;5076604;27;45333;-77
2022/07/05 02:04:08;;;;;;;;;3.75;3.75;;;;;21.82;63.19;99446.97;5076402;27;45240;-78
2022/07/05 02:06:34;;;;;;;;;4.60;4.60;;;;;21.80;63.52;99437.34;5075960;27;45421;-77
2022/07/05 02:09:01;;;;;;;;;5.00;5.00;;;;;21.74;63.63;99449.44;5075785;28;45399;-77
2022/07/05 02:11:26;;;;;;;;;4.60;4.00;;;;;21.70;63.62;99442.59;5076303;28;45312;-77
2022/07/05 02:13:52;;;;;;;;;6.00;6.00;;;;;21.65;63.31;99439.44;5075109;27;45557;-77
2022/07/05 02:16:17;;;;;;;;;5.25;5.25;;;;;21.55;63.32;99450.06;5074446;28;48483;-78
2022/07/05 02:18:42;;;;;;;;;4.25;4.25;;;;;21.50;64.33;99448.72;5075692;27;45415;-77
2022/07/05 02:21:08;;;;;;;;;5.00;5.00;;;;;21.43;64.23;99442.16;5076108;27;45765;-78
2022/07/05 02:23:33;;;;;;;;;5.00;4.00;;;;;21.39;64.39;99446.91;5075813;28;45518;-77
2022/07/05 02:25:59;;;;;;;;;5.00;5.00;;;;;21.36;64.45;99449.81;5073899;28;47124;-77
2022/07/05 02:28:24;;;;;;;;;5.25;5.00;;;;;21.36;65.13;99443.59;5075115;28;45384;-77
2022/07/05 02:30:50;;;;;;;;;8.50;5.25;;;;;21.33;65.02;99454.56;5076215;28;46062;-78
2022/07/05 02:33:15;;;;;;;;;5.00;5.00;;;;;21.31;64.65;99453.81;5075986;27;45400;-77
2022/07/05 02:35:40;;;;;;;;;4.50;4.50;;;;;21.29;64.61;99462.00;5075516;27;46446;-77
2022/07/05 02:38:06;;;;;;;;;6.25;5.00;;;;;21.28;64.68;99460.31;5089027;27;45349;-77
2022/07/05 02:40:31;;;;;;;;;7.00;6.25;;;;;21.24;64.98;99464.19;5074567;27;45873;-77
2022/07/05 02:42:57;;;;;;;;;4.25;4.25;;;;;21.19;64.69;99461.00;5075091;27;45431;-77
2022/07/05 02:45:23;;;;;;;;;5.00;5.00;;;;;21.18;64.62;99461.97;5075192;27;45501;-77
2022/07/05 02:47:48;;;;;;;;;5.50;5.50;;;;;21.19;64.59;99469.91;5075438;27;45360;-78
2022/07/05 02:50:14;;;;;;;;;2.50;2.50;;;;;21.21;64.74;99462.63;5075864;28;45456;-77
2022/07/05 02:52:39;;;;;;;;;9.75;5.50;;;;;21.24;64.92;99464.19;5075698;27;45401;-78
2022/07/05 02:55:05;;;;;;;;;6.50;6.00;;;;;21.30;64.66;99466.38;5075424;27;45305;-77
2022/07/05 02:57:31;;;;;;;;;5.40;5.20;;;;;21.34;65.22;99458.97;5074771;27;45463;-78
2022/07/05 02:59:57;;;;;;;;;7.00;7.00;;;;;21.38;65.13;99469.34;5075673;27;45382;-77
2022/07/05 03:02:23;;;;;;;;;7.75;6.00;;;;;21.42;65.01;99468.13;5075316;28;45549;-78
2022/07/05 03:04:49;;;;;;;;;5.40;5.40;;;;;21.45;64.20;99470.53;5073664;28;47299;-78
2022/07/05 03:07:15;;;;;;;;;7.50;7.50;;;;;21.48;64.58;99469.44;5073847;28;45388;-77
2022/07/05 03:09:40;;;;;;;;;5.40;4.20;;;;;21.52;64.28;99468.22;5075377;28;45193;-77
2022/07/05 03:12:06;;;;;;;;;6.00;5.00;;;;;21.52;63.68;99479.81;5074816;27;45479;-77
2022/07/05 03:14:32;;;;;;;;;6.00;5.00;;;;;21.51;63.71;99479.94;5075406;27;46815;-77
2022/07/05 03:16:57;;;;;;;;;5.75;5.75;;;;;21.51;64.25;99478.09;5075102;27;45355;-77
2022/07/05 03:19:22;;;;;;;;;5.25;4.75;;;;;21.47;64.07;99478.47;5075362;27;45462;-77
2022/07/05 03:21:48;;;;;;;;;5.00;5.00;;;;;21.41;63.65;99477.13;5075132;27;45474;-77
2022/07/05 03:24:13;;;;;;;;;3.50;3.00;;;;;21.39;63.77;99478.22;5075092;27;45468;-78
2022/07/05 03:26:39;;;;;;;;;5.00;4.00;;;;;21.39;63.80;99480.91;5074984;27;45513;-78
2022/07/05 03:29:04;;;;;;;;;5.75;5.75;;;;;21.38;63.73;99484.56;5074742;27;45484;-78
2022/07/05 03:31:30;;;;;;;;;6.25;6.00;;;;;21.38;63.72;99481.88;5075062;27;45427;-78
2022/07/05 03:33:56;;;;;;;;;5.00;5.00;;;;;21.37;63.67;99488.22;5074914;27;46214;-77
2022/07/05 03:36:22;;;;;;;;;4.80;4.80;;;;;21.35;63.06;99485.66;5075199;27;45474;-78
2022/07/05 03:38:47;;;;;;;;;5.75;5.75;;;;;21.32;63.90;99496.63;5075579;27;45440;-78
2022/07/05 03:41:12;;;;;;;;;5.75;5.75;;;;;21.29;63.96;99496.00;5076221;27;45570;-78
2022/07/05 03:43:38;;;;;;;;;6.00;5.25;;;;;21.26;63.74;99502.50;5077867;27;45557;-78
2022/07/05 03:46:03;;;;;;;;;4.00;4.00;;;;;21.21;63.89;99501.97;5078322;27;45152;-78
2022/07/05 03:48:28;;;;;;;;;5.00;5.00;;;;;21.16;63.68;99504.13;5078251;27;45364;-78
2022/07/05 03:50:54;;;;;;;;;7.00;6.00;;;;;21.11;63.96;99496.47;5078154;27;45380;-78
2022/07/05 03:53:19;;;;;;;;;7.75;6.00;;;;;21.05;64.01;99506.78;5077996;27;46678;-78
2022/07/05 03:55:45;;;;;;;;;5.00;5.00;;;;;20.99;64.36;99502.75;5078121;28;45473;-78
2022/07/05 03:58:10;;;;;;;;;6.00;5.00;;;;;20.94;64.47;99507.63;5077543;27;45821;-77
2022/07/05 04:00:36;;;;;;;;;5.00;5.00;;;;;20.89;64.67;99510.66;5077927;28;45378;-78
2022/07/05 04:03:01;;;;;;;;;4.00;4.00;;;;;20.85;64.97;99509.16;5077787;27;45477;-78
2022/07/05 04:05:26;;;;;;;;;6.00;6.00;;;;;20.80;65.17;99511.34;5076293;28;45408;-77
2022/07/05 04:07:55;;;;;;;;;4.00;3.00;;;;;20.78;66.06;99517.81;5093376;27;45367;-77
2022/07/05 04:10:21;;;;;;;;;5.00;5.00;;;;;20.74;65.93;99514.50;5077934;27;45369;-58
2022/07/05 04:12:46;;;;;;;;;6.00;5.25;;;;;20.74;66.19;99514.50;5077060;27;45428;-58
2022/07/05 04:15:13;;;;;;;;;5.00;5.00;;;;;20.74;66.16;99522.53;5077778;27;45489;-58
2022/07/05 04:17:49;;;;;;;;;7.00;6.00;;;;;20.72;65.76;99526.28;5077536;27;45589;-58
2022/07/05 04:20:15;;;;;;;;;3.00;3.00;;;;;20.69;66.31;99527.38;5065686;27;45649;-58
2022/07/05 04:22:41;;;;;;;;;5.00;5.00;;;;;20.67;65.68;99532.00;5072029;28;45533;-59
2022/07/05 04:25:19;;;;;;;;;6.25;6.25;;;;;20.61;66.63;99528.94;5076117;27;45579;-58
2022/07/05 04:27:50;;;;;;;;;3.25;3.25;;;;;20.54;66.87;99526.72;5075545;28;45353;-58
2022/07/05 04:30:17;;;;;;;;;4.00;4.00;;;;;20.53;66.98;99532.16;5076981;27;45525;-58
2022/07/05 04:32:43;;;;;;;;;5.00;4.50;;;;;20.48;66.93;99535.19;5076567;27;45897;-58
2022/07/05 04:35:10;;;;;;;;;4.80;4.80;;;;;20.49;66.33;99538.72;5076432;27;45410;-58
2022/07/05 04:37:36;;;;;;;;;5.50;5.50;;;;;20.49;66.92;99536.91;5076928;27;45449;-58
2022/07/05 04:40:05;;;;;;;;;7.00;6.75;;;;;20.52;66.58;99539.34;5076905;27;45568;-58
2022/07/05 04:42:31;;;;;;;;;4.75;4.25;;;;;20.51;66.99;99548.34;5076390;27;46546;-58
2022/07/05 04:44:56;;;;;;;;;5.00;5.00;;;;;20.52;65.90;99552.75;5076636;27;45401;-58
2022/07/05 04:47:22;;;;;;;;;6.00;5.00;;;;;20.54;66.34;99544.59;5077225;27;45338;-58
2022/07/05 04:49:47;;;;;;;;;4.00;3.00;;;;;20.57;65.85;99552.41;5076944;28;45475;-58
2022/07/05 04:52:13;;;;;;;;;5.00;5.00;;;;;20.57;65.97;99563.13;5076490;27;45591;-58
2022/07/05 04:54:38;;;;;;;;;5.00;5.00;;;;;20.58;65.26;99564.84;5076638;27;45417;-58
2022/07/05 04:57:04;;;;;;;;;5.50;5.50;;;;;20.59;65.69;99560.34;5076357;27;45519;-58
2022/07/05 04:59:29;;;;;;;;;5.00;5.00;;;;;20.59;65.45;99550.47;5075360;28;45538;-58
2022/07/05 05:01:55;;;;;;;;;3.75;3.75;;;;;20.60;65.89;99559.38;5076320;27;46578;-58
2022/07/05 05:04:20;;;;;;;;;6.25;4.75;;;;;20.59;65.84;99558.53;5076066;28;45519;-58
2022/07/05 05:06:46;;;;;;;;;4.00;4.00;;;;;20.60;65.28;99556.69;5065641;27;45459;-58
2022/07/05 05:09:11;;;;;;;;;6.00;6.00;;;;;20.62;65.74;99563.63;5070640;28;45492;-58
2022/07/05 05:11:37;;;;;;;;;4.75;4.75;;;;;20.63;65.12;99565.34;5075488;27;45778;-57
2022/07/05 05:14:02;;;;;;;;;5.00;5.00;;;;;20.66;65.72;99574.97;5076145;27;45361;-58
2022/07/05 05:16:28;;;;;;;;;6.00;5.00;;;;;20.66;65.45;99577.66;5076148;27;45399;-58
2022/07/05 05:18:53;;;;;;;;;5.75;4.25;;;;;20.65;65.12;99566.06;5076371;28;45502;-58
2022/07/05 05:21:19;;;;;;;;;5.00;5.00;;;;;20.65;65.72;99570.59;5066222;27;47030;-59
2022/07/05 05:23:44;;;;;;;;;5.00;5.00;;;;;20.66;65.45;99572.28;5072382;28;45385;-59
2022/07/05 05:26:09;;;;;;;;;6.00;6.00;;;;;20.67;64.97;99572.19;5075709;27;45512;-60
2022/07/05 05:28:35;;;;;;;;;7.00;6.00;;;;;20.69;65.17;99570.25;5075039;27;45554;-60
2022/07/05 05:31:00;;;;;;;;;7.00;7.00;;;;;20.70;65.38;99579.16;5075329;27;46155;-60
2022/07/05 05:33:26;;;;;;;;;5.25;5.25;;;;;20.69;64.96;99578.28;5075364;27;45331;-60
2022/07/05 05:35:51;;;;;;;;;5.50;5.50;;;;;20.70;65.17;99579.16;5069735;27;45441;-60
2022/07/05 05:38:17;;;;;;;;;7.25;7.25;;;;;20.74;64.86;99570.78;5071462;28;45301;-60
2022/07/05 05:40:44;;;;;;;;;6.00;4.50;;;;;20.81;64.40;99573.81;5074955;27;47329;-60
2022/07/05 05:43:10;;;;;;;;;5.80;5.60;;;;;20.86;64.95;99574.34;5075191;27;45502;-60
2022/07/05 05:45:36;;;;;;;;;5.60;5.40;;;;;20.89;64.38;99577.66;5075423;27;45380;-60
2022/07/05 05:48:01;;;;;;;;;6.25;6.25;;;;;20.90;64.86;99576.69;5075100;27;45492;-60
2022/07/05 05:50:29;;;;;;;;;4.50;4.50;;;;;20.90;64.77;99574.00;5073038;27;45435;-60
2022/07/05 05:52:55;;;;;;;;;9.40;6.60;;;;;20.94;64.67;99573.78;5071236;28;45329;-60
2022/07/05 05:55:22;;;;;;;;;5.00;5.00;;;;;20.95;64.81;99575.50;5073227;27;45416;-60
2022/07/05 05:57:48;;;;;;;;;5.00;5.00;;;;;20.94;64.80;99580.00;5065907;28;45435;-58
2022/07/05 06:00:17;;;;;;;;;4.25;4.25;;;;;20.93;64.94;99583.66;5074980;28;46221;-58
2022/07/05 06:02:44;;;;;;;;;7.80;7.00;;;;;20.92;65.24;99583.75;5075218;27;45317;-59
2022/07/05 06:05:10;;;;;;;;;7.00;7.00;;;;;20.89;65.39;99582.16;5072808;27;45347;-59
2022/07/05 06:07:51;;;;;;;;;7.25;6.25;;;;;20.89;64.70;99584.84;5072342;28;45478;-58
2022/07/05 06:10:23;;;;;;;;;7.25;5.00;;;;;20.85;64.69;99573.50;5072552;28;45466;-58
2022/07/05 06:12:50;;;;;;;;;5.00;5.00;;;;;20.85;64.73;99584.22;5062086;28;45575;-58
2022/07/05 06:15:16;;;;;;;;;7.50;7.50;;;;;20.85;64.80;99576.16;5073822;27;45371;-60
2022/07/05 06:17:42;;;;;;;;;6.75;6.00;;;;;20.89;65.35;99576.81;5074685;27;45396;-58
2022/07/05 06:20:09;;;;;;;;;10.00;6.00;;;;;20.90;64.92;99575.84;5075056;27;45448;-58
2022/07/05 06:22:35;;;;;;;;;7.20;6.00;;;;;20.92;65.10;99579.25;5074979;28;45482;-58
2022/07/05 06:25:00;;;;;;;;;4.00;4.00;;;;;20.94;64.45;99581.81;5074486;27;45327;-59
2022/07/05 06:27:26;;;;;;;;;5.25;5.25;;;;;20.95;64.93;99584.38;5074139;27;45619;-58
2022/07/05 06:29:51;;;;;;;;;6.50;5.75;;;;;20.96;65.07;99585.22;5074383;27;45332;-58
2022/07/05 06:32:16;;;;;;;;;10.50;7.50;;;;;20.99;64.66;99585.84;5093853;27;45406;-58
2022/07/05 06:34:42;;;;;;;;;5.00;4.00;;;;;21.04;64.59;99583.69;5074659;27;45335;-58
2022/07/05 06:37:07;;;;;;;;;5.00;4.50;;;;;21.10;64.08;99587.72;5074581;27;45343;-57
2022/07/05 06:39:33;;;;;;;;;4.50;4.50;;;;;21.18;63.38;99580.81;5074664;27;45324;-58
2022/07/05 06:41:59;;;;;;;;;5.25;5.00;;;;;21.24;63.52;99591.09;5073851;27;45445;-60
2022/07/05 06:44:24;;;;;;;;;5.50;5.50;;;;;21.27;62.91;99581.13;5074243;28;45402;-59
2022/07/05 06:46:50;;;;;;;;;5.50;5.00;;;;;21.33;63.65;99586.84;5074247;27;45526;-58
2022/07/05 06:49:15;;;;;;;;;5.25;5.25;;;;;21.40;62.41;99588.09;5074511;27;47296;-59
2022/07/05 06:51:41;;;;;;;;;5.00;5.00;;;;;21.46;62.77;99587.59;5074026;27;45352;-57
2022/07/05 06:54:06;;;;;;;;;5.50;5.50;;;;;21.49;62.33;99586.50;5074210;27;45332;-57
2022/07/05 06:56:31;;;;;;;;;7.25;5.75;;;;;21.51;62.11;99576.53;5089227;27;45794;-59
2022/07/05 06:58:57;;;;;;;;;8.25;7.00;;;;;21.57;62.16;99576.91;5073889;27;45505;-59
2022/07/05 07:01:22;;;;;;;;;5.25;5.00;;;;;21.59;62.02;99577.66;5073873;27;45400;-58
2022/07/05 07:03:48;;;;;;;;;8.00;5.00;;;;;21.63;61.72;99575.56;5074425;27;45777;-57
2022/07/05 07:06:13;;;;;;;;;5.75;5.50;;;;;21.70;61.91;99578.63;5074245;27;45422;-57
2022/07/05 07:11:23;;;;;;;;;5.20;5.20;;;;;21.83;61.33;99582.03;5074183;28;45340;-59
2022/07/05 07:13:48;;;;;;;;;5.75;5.00;;;;;21.91;61.51;99583.16;5073911;27;45320;-62
2022/07/05 07:16:13;;;;;;;;;6.00;6.00;;;;;21.97;60.73;99580.94;5074344;27;45285;-58
2022/07/05 07:18:39;;;;;;;;;2.00;2.00;;;;;22.04;60.37;99583.06;5073600;27;45783;-58
2022/07/05 07:21:05;;;;;;;;;4.50;4.50;;;;;22.07;60.40;99582.81;5074278;27;45355;-58
2022/07/05 07:23:30;;;;;;;;;5.00;5.00;;;;;22.15;60.54;99584.88;5073662;27;45355;-58
2022/07/05 07:25:56;;;;;;;;;6.50;5.25;;;;;22.20;60.87;99580.84;5073685;27;45411;-57
2022/07/05 07:28:21;;;;;;;;;5.50;4.50;;;;;22.26;59.38;99577.69;5073077;27;45820;-58
2022/07/05 07:30:46;;;;;;;;;5.75;5.00;;;;;22.34;59.62;99571.69;5074045;27;45351;-58
2022/07/05 07:33:12;;;;;;;;;5.75;5.00;;;;;22.39;59.26;99568.63;5073933;27;45421;-58
2022/07/05 07:35:37;;;;;;;;;6.75;5.75;;;;;22.41;58.80;99566.66;5074051;27;45462;-58
2022/07/05 07:38:02;;;;;;;;;5.00;5.00;;;;;22.43;59.32;99570.94;5073754;27;45956;-58
2022/07/05 07:40:28;;;;;;;;;7.00;6.00;;;;;22.48;59.50;99565.16;5073976;27;45329;-60
2022/07/05 07:42:54;;;;;;;;;4.75;4.00;;;;;22.54;58.27;99572.72;5073786;27;45795;-58
2022/07/05 07:45:19;;;;;;;;;6.00;5.00;;;;;22.60;58.28;99574.94;5073672;27;45435;-58
2022/07/05 07:47:44;;;;;;;;;5.50;5.50;;;;;22.66;57.50;99576.22;5073385;27;45871;-58
2022/07/05 07:50:10;;;;;;;;;5.00;5.00;;;;;22.71;57.50;99563.28;5073897;27;45510;-58
2022/07/05 07:52:36;;;;;;;;;5.25;4.50;;;;;22.75;57.18;99557.53;5074155;27;45478;-59
2022/07/05 07:55:02;;;;;;;;;3.00;3.00;;;;;22.82;56.93;99565.94;5074073;27;45413;-57
2022/07/05 07:57:28;;;;;;;;;5.25;4.00;;;;;22.86;56.16;99564.72;5073579;27;45416;-60
2022/07/05 07:59:53;;;;;;;;;6.50;5.50;;;;;22.88;55.40;99565.44;5073717;27;45439;-57
2022/07/05 08:02:21;;;;;;;;;3.75;3.25;;;;;22.92;55.24;99561.53;5073753;27;45386;-57
2022/07/05 08:04:47;;;;;;;;;4.75;4.75;;;;;22.95;55.01;99558.59;5073779;27;45372;-58
2022/07/05 08:07:13;;;;;;;;;4.80;4.00;;;;;22.97;55.84;99557.44;5074113;27;45387;-60
2022/07/05 08:09:38;;;;;;;;;4.25;4.00;;;;;23.03;54.93;99557.91;5074095;27;45364;-59
2022/07/05 08:12:05;;;;;;;;;5.00;5.00;;;;;23.09;55.02;99560.09;5073637;27;45798;-59
2022/07/05 08:14:31;;;;;;;;;4.00;4.00;;;;;23.15;55.22;99548.81;5073739;27;45467;-59
2022/07/05 08:16:58;;;;;;;;;5.00;4.00;;;;;23.18;54.62;99548.56;5072208;28;46927;-59
2022/07/05 08:22:08;;;;;;;;;4.40;4.40;;;;;23.31;54.42;99547.34;5073847;28;45440;-60
2022/07/05 08:24:34;;;;;;;;;6.25;5.50;;;;;23.38;54.83;99538.78;5073519;28;45368;-57
2022/07/05 08:26:59;;;;;;;;;5.80;4.80;;;;;23.44;54.38;99540.94;5073422;28;46434;-59
2022/07/05 08:29:25;;;;;;;;;5.00;5.00;;;;;23.53;54.52;99538.31;5076963;27;45147;-59
2022/07/05 08:31:51;;;;;;;;;5.00;5.00;;;;;23.64;54.45;99537.38;5076528;27;45391;-59
2022/07/05 08:34:20;;;;;;;;;7.00;5.20;;;;;23.75;54.71;99539.16;5076692;27;45465;-59
2022/07/05 08:36:46;;;;;;;;;4.00;4.00;;;;;23.84;54.78;99535.63;5076571;27;46292;-58
2022/07/05 08:39:13;;;;;;;;;10.00;7.00;;;;;23.90;54.42;99527.88;5076421;27;45556;-58
2022/07/05 08:41:41;;;;;;;;;4.60;3.80;;;;;23.98;54.22;99521.78;5076795;27;45434;-58
2022/07/05 08:44:07;;;;;;;;;5.00;5.00;;;;;24.06;54.49;99518.44;5076816;27;45361;-58
2022/07/05 08:46:36;;;;;;;;;4.60;4.40;;;;;24.14;54.25;99516.75;5076495;27;45386;-58
2022/07/05 08:49:06;;;;;;;;;5.20;5.20;;;;;24.21;54.30;99519.75;5076274;28;45411;-58
2022/07/05 08:51:36;;;;;;;;;6.00;6.00;;;;;24.27;54.03;99514.69;5076170;27;45391;-59
2022/07/05 08:54:02;;;;;;;;;4.00;4.00;;;;;24.32;54.39;99517.81;5076703;27;45313;-59
2022/07/05 08:56:27;;;;;;;;;5.00;5.00;;;;;24.40;54.48;99514.44;5076621;27;45438;-58
2022/07/05 08:58:53;;;;;;;;;6.50;6.50;;;;;24.44;54.38;99510.47;5076251;27;45427;-58
2022/07/05 09:01:18;;;;;;;;;8.75;6.50;;;;;24.47;54.42;99506.63;5076974;27;45383;-59
2022/07/05 09:03:47;;;;;;;;;6.25;6.25;;;;;24.51;53.73;99511.59;5076333;27;45364;-58
2022/07/05 09:06:17;;;;;;;;;7.40;6.80;;;;;24.54;53.96;99521.25;5076453;27;45532;-59
2022/07/05 09:08:42;;;;;;;;;7.20;6.20;;;;;24.55;54.00;99520.25;5076378;27;45420;-58
2022/07/05 09:11:11;;;;;;;;;7.25;6.00;;;;;24.57;53.51;99524.53;5076549;27;45463;-58
2022/07/05 09:13:38;;;;;;;;;5.60;5.60;;;;;24.61;53.72;99519.72;5076076;27;45484;-58
2022/07/05 09:16:05;;;;;;;;;6.60;4.60;;;;;24.61;53.55;99517.03;5076057;27;45509;-58
2022/07/05 09:18:50;;;;;;;;;7.80;6.60;;;;;24.63;54.05;99510.47;5076353;27;45360;-58
2022/07/05 09:21:17;;;;;;;;;7.00;6.20;;;;;24.69;53.54;99514.44;5076433;27;45393;-58
2022/07/05 09:23:44;;;;;;;;;7.25;7.25;;;;;24.68;53.85;99513.59;5076223;27;45428;-58
2022/07/05 09:26:09;;;;;;;;;3.20;3.20;;;;;24.73;53.39;99521.28;5076158;27;46231;-58
2022/07/05 09:28:35;;;;;;;;;4.25;4.25;;;;;24.77;53.81;99511.91;5075435;27;45390;-58
2022/07/05 09:31:01;;;;;;;;;9.00;7.75;;;;;24.77;53.62;99511.91;5076446;27;45451;-58
2022/07/05 09:33:26;;;;;;;;;6.00;6.00;;;;;24.81;53.68;99517.84;5076118;27;45513;-58
2022/07/05 09:35:58;;;;;;;;;5.75;5.25;;;;;24.87;53.45;99512.75;5075667;27;45415;-58
2022/07/05 09:38:25;;;;;;;;;6.40;6.40;;;;;24.92;53.45;99509.63;5074670;27;45503;-58
2022/07/05 09:40:54;;;;;;;;;5.00;3.40;;;;;24.96;53.21;99505.69;5076283;27;45406;-58
2022/07/05 09:43:22;;;;;;;;;10.00;7.75;;;;;24.98;53.38;99511.78;5075290;28;45467;-58
2022/07/05 09:45:54;;;;;;;;;6.80;6.80;;;;;25.06;53.32;99514.63;5075642;27;45723;-59
2022/07/05 09:48:19;;;;;;;;;8.00;7.40;;;;;25.12;53.53;99505.97;5075330;27;45464;-59
2022/07/05 09:50:45;;;;;;;;;6.25;6.25;;;;;25.19;53.21;99517.00;5075675;27;45455;-58
2022/07/05 09:53:11;;;;;;;;;6.00;6.00;;;;;25.30;52.84;99508.78;5075584;28;45352;-58
2022/07/05 09:55:37;;;;;;;;;7.00;6.00;;;;;25.33;52.87;99501.22;5075350;27;45534;-59
2022/07/05 09:58:03;;;;;;;;;6.80;6.80;;;;;25.41;53.36;99510.44;5074913;27;45365;-59
2022/07/05 10:00:29;;;;;;;;;7.50;7.50;;;;;25.45;52.76;99509.16;5075372;28;45534;-59
2022/07/05 10:03:02;;;;;;;;;2.50;1.75;;;;;25.49;52.39;99507.84;5075278;27;45356;-59
2022/07/05 10:05:33;;;;;;;;;7.80;7.80;;;;;25.54;52.38;99519.91;5074804;27;45452;-58
2022/07/05 10:08:01;;;;;;;;;6.80;6.80;;;;;25.60;52.65;99527.44;5074809;27;45282;-59
2022/07/05 10:10:29;;;;;;;;;7.40;7.40;;;;;25.63;51.83;99519.09;5075162;27;45455;-59
2022/07/05 10:13:05;;;;;;;;;4.50;4.50;;;;;25.63;52.10;99524.47;5074988;27;45515;-59
2022/07/05 10:15:35;;;;;;;;;6.00;6.00;;;;;25.66;52.10;99515.22;5075179;27;46559;-59
2022/07/05 10:18:08;;;;;;;;;5.40;5.40;;;;;25.67;52.26;99493.47;5075099;27;45443;-59
2022/07/05 10:20:40;;;;;;;;;6.80;6.80;;;;;25.77;52.26;99506.94;5075360;27;45382;-59
2022/07/05 10:23:17;;;;;;;;;6.50;6.50;;;;;25.84;52.02;99508.03;5075308;27;45416;-59
2022/07/05 10:25:47;;;;;;;;;8.00;8.00;;;;;25.87;52.26;99515.84;5074936;27;46790;-59
2022/07/05 10:28:14;;;;;;;;;7.00;7.00;;;;;25.90;51.82;99495.78;5074526;27;45428;-57
2022/07/05 10:30:40;;;;;;;;;7.00;6.80;;;;;25.90;52.19;99491.22;5075138;27;45369;-58
2022/07/05 10:33:07;;;;;;;;;7.25;7.00;;;;;25.95;52.20;99493.50;5074750;27;45509;-58
2022/07/05 10:35:33;;;;;;;;;5.40;5.40;;;;;26.00;51.93;99505.53;5075149;27;46294;-58
2022/07/05 10:38:00;;;;;;;;;8.00;8.00;;;;;26.04;51.38;99490.72;5074986;27;45428;-58
2022/07/05 10:40:28;;;;;;;;;7.80;7.20;;;;;26.06;51.53;99490.56;5075117;27;45400;-58
2022/07/05 10:42:59;;;;;;;;;7.00;7.00;;;;;26.10;51.54;99492.00;5074548;27;45664;-57
2022/07/05 10:45:32;;;;;;;;;7.20;7.20;;;;;26.12;51.71;99479.19;5074712;27;45440;-58
2022/07/05 10:48:12;;;;;;;;;6.80;6.80;;;;;26.10;51.40;99492.00;5074611;27;45422;-58
2022/07/05 10:51:07;;;;;;;;;9.80;9.80;;;;;26.12;51.96;99479.19;5074678;27;45417;-58
2022/07/05 10:53:35;;;;;;;;;7.00;7.00;;;;;26.17;52.05;99509.28;5059006;27;45474;-58
2022/07/05 10:56:03;;;;;;;;;10.20;10.20;;;;;26.19;51.55;99479.41;5074379;27;46317;-57
2022/07/05 10:58:39;;;;;;;;;6.40;6.40;;;;;26.23;51.86;99488.91;5074230;27;45372;-58
2022/07/05 11:01:19;;;;;;;;;6.80;6.80;;;;;26.28;51.46;99482.06;5074514;27;45428;-59
2022/07/05 11:03:47;;;;;;;;;8.00;6.25;;;;;26.30;51.64;99487.34;5075024;28;45480;-58
2022/07/05 11:06:33;;;;;;;;;9.00;8.25;;;;;26.32;51.71;99498.84;5074307;27;46295;-58
2022/07/05 11:09:08;;;;;;;;;9.20;9.20;;;;;26.34;51.30;99484.16;5074507;27;45432;-58
2022/07/05 11:11:37;;;;;;;;;8.25;7.25;;;;;26.37;51.38;99475.75;5074294;27;45596;-58
2022/07/05 11:14:23;;;;;;;;;6.25;6.00;;;;;26.46;51.06;99487.50;5075021;27;45462;-58
2022/07/05 11:17:11;;;;;;;;;4.60;4.60;;;;;26.51;51.27;99468.94;5074478;28;46488;-59
2022/07/05 11:19:58;;;;;;;;;8.20;8.20;;;;;26.48;50.79;99466.56;5074446;27;45336;-59
2022/07/05 11:22:24;;;;;;;;;7.80;7.80;;;;;26.54;50.88;99459.69;5074670;28;45337;-59
2022/07/05 11:24:50;;;;;;;;;8.00;8.00;;;;;26.63;50.83;99491.22;5074585;27;45544;-59
2022/07/05 11:27:15;;;;;;;;;8.00;8.00;;;;;26.63;50.23;99470.44;5074264;27;46261;-59
2022/07/05 11:29:51;;;;;;;;;9.75;8.75;;;;;26.62;50.91;99460.63;5074617;27;45403;-59
2022/07/05 11:32:19;;;;;;;;;10.75;9.00;;;;;26.66;50.24;99531.47;5060875;28;45498;-59
2022/07/05 11:34:48;;;;;;;;;8.00;8.00;;;;;26.68;50.82;99454.56;5074322;27;45522;-60
2022/07/05 11:37:28;;;;;;;;;11.50;10.00;;;;;26.70;50.33;99471.50;5074420;27;45571;-58
2022/07/05 11:40:11;;;;;;;;;6.00;6.00;;;;;26.70;50.62;99467.94;5074868;27;45341;-58
2022/07/05 11:42:47;;;;;;;;;8.40;8.40;;;;;26.71;50.16;99459.69;5073707;27;45405;-58